createdAt,value
2019-05-20T00:00:33.155Z,10.57
2019-05-20T00:03:01.234Z,11.13
2019-05-20T00:05:29.389Z,10.13
2019-05-20T00:07:57.514Z,11.07
2019-05-20T00:10:25.941Z,11.83
2019-05-20T00:12:54.325Z,12.37
2019-05-20T00:15:22.738Z,9.03
2019-05-20T00:17:51.098Z,8.10
2019-05-20T00:20:19.478Z,7.67
2019-05-20T00:22:47.552Z,9.13
2019-05-20T00:25:15.928Z,8.00
2019-05-20T00:27:44.002Z,9.37
2019-05-20T00:30:12.185Z,9.53
2019-05-20T00:32:42.162Z,9.53
2019-05-20T00:35:10.709Z,8.20
2019-05-20T00:37:38.786Z,9.20
2019-05-20T00:40:07.337Z,7.53
2019-05-20T00:42:35.419Z,9.23
2019-05-20T00:45:04.225Z,6.20
2019-05-20T00:47:32.310Z,8.57
2019-05-20T00:50:00.398Z,10.73
2019-05-20T00:52:28.475Z,9.60
2019-05-20T00:54:56.555Z,9.53
2019-05-20T00:57:24.656Z,9.30
2019-05-20T00:59:53.094Z,12.87
2019-05-20T01:02:21.178Z,7.00
2019-05-20T01:04:49.257Z,11.50
2019-05-20T01:07:17.334Z,6.83
2019-05-20T01:09:45.431Z,10.10
2019-05-20T01:12:13.765Z,8.83
2019-05-20T01:14:41.874Z,8.57
2019-05-20T01:17:10.074Z,8.90
2019-05-20T01:19:38.237Z,8.47
2019-05-20T01:22:06.686Z,9.07
2019-05-20T01:24:34.810Z,7.77
2019-05-20T01:27:03.246Z,9.20
2019-05-20T01:29:31.382Z,14.93
2019-05-20T01:31:59.525Z,8.50
2019-05-20T01:34:27.614Z,13.03
2019-05-20T01:36:55.759Z,9.67
2019-05-20T01:39:23.925Z,7.03
2019-05-20T01:41:52.426Z,11.20
2019-05-20T01:44:20.566Z,11.23
2019-05-20T01:46:48.718Z,13.27
2019-05-20T01:49:17.073Z,8.37
2019-05-20T01:51:45.269Z,11.50
2019-05-20T01:54:13.643Z,9.03
2019-05-20T01:56:41.786Z,10.00
2019-05-20T01:59:09.884Z,14.43
2019-05-20T02:01:38.071Z,10.50
2019-05-20T02:04:06.546Z,13.27
2019-05-20T02:06:34.651Z,10.33
2019-05-20T02:09:02.730Z,12.07
2019-05-20T02:11:31.177Z,10.70
2019-05-20T02:14:01.622Z,10.90
2019-05-20T02:16:29.849Z,8.90
2019-05-20T02:18:57.948Z,15.33
2019-05-20T02:21:26.356Z,9.50
2019-05-20T02:23:54.435Z,9.27
2019-05-20T02:26:22.535Z,14.30
2019-05-20T02:28:50.910Z,10.73
2019-05-20T02:31:19.295Z,10.73
2019-05-20T02:33:52.380Z,17.87
2019-05-20T02:36:17.599Z,12.97
2019-05-20T02:38:45.742Z,13.37
2019-05-20T02:41:13.838Z,15.30
2019-05-20T02:43:41.922Z,14.80
2019-05-20T02:46:10.309Z,12.77
2019-05-20T02:48:38.688Z,13.77
2019-05-20T02:51:06.759Z,15.33
2019-05-20T02:53:34.875Z,15.77
2019-05-20T02:56:03.341Z,17.00
2019-05-20T02:58:31.689Z,16.40
2019-05-20T03:00:59.769Z,20.73
2019-05-20T03:03:27.858Z,18.33
2019-05-20T03:05:56.036Z,16.83
2019-05-20T03:08:24.417Z,17.87
2019-05-20T03:10:52.495Z,19.50
2019-05-20T03:13:20.896Z,20.50
2019-05-20T03:15:48.983Z,21.13
2019-05-20T03:18:17.082Z,21.10
2019-05-20T03:20:45.160Z,22.60
2019-05-20T03:23:13.266Z,19.93
2019-05-20T03:25:41.673Z,21.50
2019-05-20T03:28:09.774Z,28.80
2019-05-20T03:30:37.871Z,21.27
2019-05-20T03:33:06.307Z,23.80
2019-05-20T03:35:34.399Z,26.67
2019-05-20T03:38:02.770Z,24.33
2019-05-20T03:40:30.935Z,20.63
2019-05-20T03:42:59.034Z,21.17
2019-05-20T03:45:27.395Z,27.40
2019-05-20T03:47:55.799Z,19.40
2019-05-20T03:50:23.877Z,23.00
2019-05-20T03:52:51.982Z,26.67
2019-05-20T03:55:20.065Z,23.20
2019-05-20T03:57:48.196Z,20.00
2019-05-20T04:00:18.114Z,24.43
2019-05-20T04:02:46.225Z,25.30
2019-05-20T04:05:14.562Z,22.43
2019-05-20T04:07:42.949Z,24.73
2019-05-20T04:10:11.047Z,25.33
2019-05-20T04:12:39.143Z,23.30
2019-05-20T04:15:07.308Z,25.23
2019-05-20T04:17:35.708Z,30.80
2019-05-20T04:20:05.223Z,28.23
2019-05-20T04:22:33.694Z,26.90
2019-05-20T04:25:01.769Z,24.20
2019-05-20T04:27:29.932Z,31.00
2019-05-20T04:29:58.026Z,23.17
2019-05-20T04:32:26.390Z,28.17
2019-05-20T04:34:54.766Z,31.70
2019-05-20T04:37:22.863Z,25.73
2019-05-20T04:39:51.334Z,46.77
2019-05-20T04:42:19.411Z,25.30
2019-05-20T04:44:47.509Z,29.47
2019-05-20T04:47:15.677Z,30.20
2019-05-20T04:49:43.757Z,17.97
2019-05-20T04:52:11.885Z,10.90
2019-05-20T04:54:40.538Z,11.03
2019-05-20T04:57:09.101Z,15.60
2019-05-20T04:59:37.230Z,14.53
2019-05-20T05:02:05.656Z,19.23
2019-05-20T05:04:33.888Z,17.63
2019-05-20T05:07:02.105Z,14.60
2019-05-20T05:09:30.606Z,20.50
2019-05-20T05:11:59.090Z,26.47
2019-05-20T05:14:27.289Z,20.53
2019-05-20T05:16:55.498Z,17.60
2019-05-20T05:19:23.917Z,11.17
2019-05-20T05:21:52.059Z,5.50
2019-05-20T05:24:20.206Z,7.70
2019-05-20T05:26:48.354Z,5.33
2019-05-20T05:29:16.507Z,7.57
2019-05-20T05:31:44.649Z,6.77
2019-05-20T05:34:12.881Z,12.00
2019-05-20T05:36:41.389Z,8.37
2019-05-20T05:39:10.008Z,9.30
2019-05-20T05:41:38.578Z,12.67
2019-05-20T05:44:06.800Z,13.03
2019-05-20T05:46:35.339Z,20.97
2019-05-20T05:49:03.558Z,25.17
2019-05-20T05:51:32.571Z,25.70
2019-05-20T05:54:00.754Z,26.83
2019-05-20T05:56:29.166Z,24.60
2019-05-20T05:58:57.301Z,27.60
2019-05-20T06:01:25.465Z,26.20
2019-05-20T06:03:53.907Z,31.63
2019-05-20T06:06:22.075Z,33.53
2019-05-20T06:08:50.214Z,36.07
2019-05-20T06:11:18.647Z,32.83
2019-05-20T06:13:46.912Z,49.03
2019-05-20T06:16:15.414Z,41.70
2019-05-20T06:18:43.561Z,51.03
2019-05-20T06:21:11.715Z,41.20
2019-05-20T06:23:40.190Z,45.60
2019-05-20T06:26:08.381Z,36.43
2019-05-20T06:28:36.515Z,47.60
2019-05-20T06:31:04.675Z,52.17
2019-05-20T06:33:32.907Z,50.40
2019-05-20T06:36:04.145Z,45.50
2019-05-20T06:38:36.825Z,49.70
2019-05-20T06:41:06.931Z,49.60
2019-05-20T06:43:35.189Z,50.20
2019-05-20T06:46:03.438Z,51.63
2019-05-20T06:48:31.564Z,64.57
2019-05-20T06:50:59.705Z,67.07
2019-05-20T06:53:28.117Z,61.00
2019-05-20T06:55:56.265Z,52.23
2019-05-20T06:58:24.402Z,57.73
2019-05-20T07:00:52.893Z,55.50
2019-05-20T07:03:21.039Z,51.10
2019-05-20T07:05:49.209Z,50.83
2019-05-20T07:08:17.396Z,61.47
2019-05-20T07:10:45.615Z,55.43
2019-05-20T07:13:16.170Z,53.50
2019-05-20T07:15:43.985Z,53.33
2019-05-20T07:18:12.245Z,47.00
2019-05-20T07:20:41.253Z,47.57
2019-05-20T07:23:09.745Z,44.97
2019-05-20T07:25:37.915Z,50.77
2019-05-20T07:28:06.173Z,41.47
2019-05-20T07:30:34.460Z,47.00
2019-05-20T07:33:02.794Z,54.83
2019-05-20T07:35:31.467Z,41.70
2019-05-20T07:37:59.838Z,43.83
2019-05-20T07:40:29.573Z,40.37
2019-05-20T07:42:57.902Z,47.97
2019-05-20T07:45:26.753Z,37.90
2019-05-20T07:47:55.191Z,38.50
2019-05-20T07:50:23.761Z,37.20
2019-05-20T07:52:52.306Z,34.43
2019-05-20T07:55:20.775Z,32.70
2019-05-20T07:57:50.604Z,42.10
2019-05-20T08:00:19.174Z,43.90
2019-05-20T08:02:47.324Z,40.10
2019-05-20T08:05:15.596Z,32.47
2019-05-20T08:07:51.889Z,32.93
2019-05-20T08:10:13.837Z,38.77
2019-05-20T08:12:42.247Z,32.60
2019-05-20T08:15:10.689Z,34.17
2019-05-20T08:17:38.850Z,30.37
2019-05-20T08:20:07.064Z,32.73
2019-05-20T08:22:35.242Z,29.40
2019-05-20T08:25:05.259Z,45.63
2019-05-20T08:27:33.682Z,28.23
2019-05-20T08:30:01.953Z,28.07
2019-05-20T08:32:30.546Z,30.63
2019-05-20T08:34:58.808Z,31.97
2019-05-20T08:37:43.695Z,25.00
2019-05-20T08:39:56.847Z,24.67
2019-05-20T08:42:24.991Z,30.10
2019-05-20T08:44:53.413Z,29.23
2019-05-20T08:47:21.820Z,24.27
2019-05-20T08:49:50.463Z,24.73
2019-05-20T08:52:18.794Z,22.93
2019-05-20T08:54:47.301Z,26.03
2019-05-20T08:57:15.452Z,23.37
2019-05-20T08:59:43.701Z,18.93
2019-05-20T09:02:11.849Z,23.23
2019-05-20T09:04:59.369Z,21.80
2019-05-20T09:07:27.519Z,23.73
2019-05-20T09:09:55.678Z,21.17
2019-05-20T09:12:23.839Z,20.13
2019-05-20T09:14:51.964Z,21.03
2019-05-20T09:17:20.386Z,22.80
2019-05-20T09:19:48.524Z,25.57
2019-05-20T09:22:16.689Z,29.20
2019-05-20T09:24:45.001Z,20.30
2019-05-20T09:27:13.301Z,23.23
2019-05-20T09:29:41.509Z,22.83
2019-05-20T09:32:09.670Z,21.33
2019-05-20T09:34:38.043Z,19.10
2019-05-20T09:37:06.531Z,20.53
2019-05-20T09:39:34.983Z,21.77
2019-05-20T09:42:03.121Z,23.50
2019-05-20T09:44:31.643Z,23.67
2019-05-20T09:46:59.777Z,21.37
2019-05-20T09:49:27.962Z,25.00
2019-05-20T09:51:56.408Z,25.00
2019-05-20T09:54:24.562Z,32.83
2019-05-20T09:56:52.784Z,28.43
2019-05-20T09:59:21.220Z,32.47
2019-05-20T10:01:50.028Z,29.60
2019-05-20T10:04:18.639Z,30.60
2019-05-20T10:06:46.822Z,34.47
2019-05-20T10:09:15.255Z,29.37
2019-05-20T10:11:43.402Z,32.30
2019-05-20T10:14:11.560Z,37.67
2019-05-20T10:16:39.723Z,28.43
2019-05-20T10:19:07.915Z,23.27
2019-05-20T10:21:36.313Z,25.30
2019-05-20T10:24:04.547Z,21.57
2019-05-20T10:29:07.442Z,24.77
2019-05-20T10:31:35.600Z,24.50
2019-05-20T10:34:04.229Z,22.73
2019-05-20T10:36:32.365Z,23.87
2019-05-20T10:39:00.588Z,15.93
2019-05-20T10:41:29.616Z,17.30
2019-05-20T10:43:57.986Z,19.73
2019-05-20T10:46:26.126Z,16.47
2019-05-20T10:48:54.286Z,16.87
2019-05-20T10:51:22.418Z,16.73
2019-05-20T10:53:50.854Z,17.23
2019-05-20T10:56:19.035Z,16.63
2019-05-20T10:58:47.239Z,15.70
2019-05-20T11:01:15.714Z,20.03
2019-05-20T11:03:43.913Z,15.80
2019-05-20T11:06:12.371Z,17.00
2019-05-20T11:08:40.742Z,14.47
2019-05-20T11:11:13.955Z,12.57
2019-05-20T11:13:39.038Z,17.57
2019-05-20T11:16:07.186Z,14.57
2019-05-20T11:18:35.611Z,21.47
2019-05-20T11:21:04.135Z,19.07
2019-05-20T11:23:32.280Z,14.87
2019-05-20T11:26:00.437Z,15.87
2019-05-20T11:28:28.582Z,17.00
2019-05-20T11:30:57.054Z,15.87
2019-05-20T11:33:25.464Z,22.77
2019-05-20T11:35:53.624Z,19.10
2019-05-20T11:38:21.868Z,18.60
2019-05-20T11:40:50.067Z,20.77
2019-05-20T11:43:18.272Z,20.30
2019-05-20T11:45:46.429Z,20.13
2019-05-20T11:48:14.887Z,16.77
2019-05-20T11:50:43.040Z,15.50
2019-05-20T11:53:11.514Z,19.63
2019-05-20T11:55:39.656Z,15.00
2019-05-20T11:58:15.788Z,14.57
2019-05-20T12:00:39.083Z,12.97
2019-05-20T12:03:07.464Z,15.43
2019-05-20T12:05:35.928Z,15.13
2019-05-20T12:08:06.398Z,15.27
2019-05-20T12:10:34.547Z,17.57
2019-05-20T12:13:02.690Z,16.00
2019-05-20T12:15:30.864Z,11.00
2019-05-20T12:17:58.998Z,10.03
2019-05-20T12:20:27.144Z,10.97
2019-05-20T12:22:55.275Z,9.70
2019-05-20T12:25:23.425Z,25.83
2019-05-20T12:27:51.586Z,11.13
2019-05-20T12:30:19.759Z,11.30
2019-05-20T12:32:48.010Z,9.00
2019-05-20T12:35:16.217Z,13.97
2019-05-20T12:37:45.739Z,10.63
2019-05-20T12:40:14.187Z,7.93
2019-05-20T12:42:42.298Z,8.00
2019-05-20T12:45:10.731Z,8.60
2019-05-20T12:47:38.935Z,10.37
2019-05-20T12:50:07.968Z,7.90
2019-05-20T12:52:36.107Z,7.00
2019-05-20T12:55:08.704Z,4.70
2019-05-20T12:57:35.360Z,4.87
2019-05-20T13:00:05.407Z,4.23
2019-05-20T13:02:33.877Z,4.67
2019-05-20T13:05:02.421Z,4.30
2019-05-20T13:07:30.653Z,3.90
2019-05-20T13:10:02.747Z,3.53
2019-05-20T13:12:28.677Z,8.40
2019-05-20T13:14:56.812Z,2.80
2019-05-20T13:17:25.053Z,3.83
2019-05-20T13:19:53.256Z,1.63
2019-05-20T13:22:21.403Z,2.40
2019-05-20T13:24:49.848Z,1.50
2019-05-20T13:27:18.014Z,3.07
2019-05-20T13:29:46.474Z,1.30
2019-05-20T13:32:14.632Z,1.70
2019-05-20T13:34:42.767Z,1.10
2019-05-20T13:37:10.958Z,1.10
2019-05-20T13:39:40.400Z,0.70
2019-05-20T13:42:09.003Z,0.90
2019-05-20T13:44:37.174Z,1.40
2019-05-20T13:47:05.400Z,7.60
2019-05-20T13:49:33.739Z,2.70
2019-05-20T13:52:02.283Z,3.33
2019-05-20T13:54:30.881Z,5.47
2019-05-20T13:56:59.384Z,1.50
2019-05-20T13:59:27.523Z,1.27
2019-05-20T14:01:55.738Z,6.43
2019-05-20T14:04:23.870Z,5.00
2019-05-20T14:06:52.065Z,2.67
2019-05-20T14:09:20.486Z,4.93
2019-05-20T14:11:48.627Z,6.17
2019-05-20T14:14:17.040Z,8.43
2019-05-20T14:16:45.210Z,19.63
2019-05-20T14:19:13.360Z,18.17
2019-05-20T14:21:41.528Z,11.47
2019-05-20T14:24:09.676Z,12.00
2019-05-20T14:26:37.815Z,12.03
2019-05-20T14:29:06.207Z,13.27
2019-05-20T14:31:34.349Z,13.03
2019-05-20T14:34:02.519Z,14.60
2019-05-20T14:36:39.402Z,15.80
2019-05-20T14:39:00.839Z,15.70
2019-05-20T14:41:29.032Z,11.37
2019-05-20T14:43:57.248Z,12.77
2019-05-20T14:46:25.405Z,8.80
2019-05-20T14:48:53.548Z,10.90
2019-05-20T14:51:22.048Z,13.30
2019-05-20T14:53:50.222Z,11.27
2019-05-20T14:56:18.462Z,10.70
2019-05-20T14:58:46.623Z,11.50
2019-05-20T15:01:15.127Z,14.90
2019-05-20T15:03:43.280Z,13.80
2019-05-20T15:06:11.415Z,15.93
2019-05-20T15:08:39.570Z,7.63
2019-05-20T15:11:07.712Z,9.30
2019-05-20T15:13:36.215Z,9.70
2019-05-20T15:16:04.342Z,9.20
2019-05-20T15:18:32.507Z,10.50
2019-05-20T15:21:00.656Z,10.07
2019-05-20T15:23:29.224Z,8.07
2019-05-20T15:25:57.389Z,8.37
2019-05-20T15:28:25.555Z,8.37
2019-05-20T15:30:53.697Z,8.80
2019-05-20T15:33:21.858Z,7.67
2019-05-20T15:35:50.329Z,8.53
2019-05-20T15:38:18.752Z,7.87
2019-05-20T15:40:47.205Z,7.97
2019-05-20T15:43:15.346Z,10.90
2019-05-20T15:45:43.470Z,9.43
2019-05-20T15:48:11.628Z,6.87
2019-05-20T15:50:39.763Z,4.87
2019-05-20T15:53:11.284Z,6.13
2019-05-20T15:55:38.287Z,3.37
2019-05-20T15:58:06.688Z,4.07
2019-05-20T16:00:34.827Z,3.60
2019-05-20T16:03:02.989Z,3.33
2019-05-20T16:05:31.115Z,5.90
2019-05-20T16:07:59.635Z,2.40
2019-05-20T16:10:27.787Z,4.13
2019-05-20T16:12:55.928Z,3.57
2019-05-20T16:15:24.392Z,4.03
2019-05-20T16:17:52.542Z,5.63
2019-05-20T16:20:20.749Z,9.20
2019-05-20T16:22:48.906Z,6.10
2019-05-20T16:25:17.034Z,9.87
2019-05-20T16:27:45.474Z,14.50
2019-05-20T16:30:14.043Z,9.40
2019-05-20T16:32:42.277Z,11.57
2019-05-20T16:35:10.497Z,13.03
2019-05-20T16:37:38.724Z,10.80
2019-05-20T16:40:08.320Z,19.83
2019-05-20T16:42:36.502Z,14.07
2019-05-20T16:45:06.180Z,12.40
2019-05-20T16:47:34.328Z,14.30
2019-05-20T16:50:02.655Z,13.03
2019-05-20T16:52:31.203Z,14.30
2019-05-20T16:54:59.600Z,15.87
2019-05-20T16:57:27.811Z,18.60
2019-05-20T16:59:55.997Z,18.53
2019-05-20T17:02:24.170Z,15.43
2019-05-20T17:04:52.378Z,18.50
2019-05-20T17:07:20.599Z,23.60
2019-05-20T17:09:48.742Z,18.87
2019-05-20T17:12:16.969Z,22.00
2019-05-20T17:14:45.113Z,16.63
2019-05-20T17:17:13.343Z,20.23
2019-05-20T17:19:41.478Z,17.20
2019-05-20T17:22:09.629Z,26.60
2019-05-20T17:24:37.786Z,23.03
2019-05-20T17:27:05.935Z,24.67
2019-05-20T17:29:34.567Z,24.13
2019-05-20T17:32:02.708Z,28.13
2019-05-20T17:34:30.868Z,26.30
2019-05-20T17:36:59.263Z,21.03
2019-05-20T17:39:27.454Z,26.37
2019-05-20T17:41:55.765Z,29.20
2019-05-20T17:44:23.933Z,33.90
2019-05-20T17:46:52.404Z,33.27
2019-05-20T17:49:20.559Z,43.90
2019-05-20T17:51:48.967Z,36.93
2019-05-20T17:54:17.218Z,39.73
2019-05-20T17:56:45.364Z,39.43
2019-05-20T17:59:13.507Z,35.93
2019-05-20T18:01:41.650Z,32.30
2019-05-20T18:04:09.801Z,43.47
2019-05-20T18:06:37.951Z,36.13
2019-05-20T18:09:06.951Z,32.93
2019-05-20T18:11:35.098Z,31.67
2019-05-20T18:14:03.835Z,33.77
2019-05-20T18:16:31.975Z,34.47
2019-05-20T18:19:00.135Z,34.37
2019-05-20T18:21:28.405Z,35.23
2019-05-20T18:23:56.833Z,38.40
2019-05-20T18:26:24.972Z,43.63
2019-05-20T18:28:53.120Z,44.07
2019-05-20T18:31:31.993Z,48.80
2019-05-20T18:33:51.148Z,51.73
2019-05-20T18:36:19.359Z,44.70
2019-05-20T18:38:49.517Z,48.73
2019-05-20T18:41:17.861Z,44.63
2019-05-20T18:43:46.273Z,49.53
2019-05-20T18:46:14.467Z,54.67
2019-05-20T18:48:43.035Z,46.60
2019-05-20T18:51:11.183Z,52.03
2019-05-20T18:53:39.681Z,56.00
2019-05-20T18:56:08.086Z,51.40
2019-05-20T18:58:36.244Z,43.07
2019-05-20T19:01:04.555Z,37.73
2019-05-20T19:03:33.667Z,48.77
2019-05-20T19:06:02.273Z,46.10
2019-05-20T19:08:30.430Z,47.77
2019-05-20T19:10:58.597Z,50.57
2019-05-20T19:13:26.814Z,40.43
2019-05-20T19:15:55.217Z,38.43
2019-05-20T19:18:23.354Z,44.47
2019-05-20T19:20:51.521Z,56.63
2019-05-20T19:23:19.695Z,53.63
2019-05-20T19:25:47.840Z,63.10
2019-05-20T19:28:15.988Z,62.23
2019-05-20T19:30:44.143Z,65.20
2019-05-20T19:33:12.364Z,58.43
2019-05-20T19:35:40.524Z,59.07
2019-05-20T19:38:08.664Z,55.27
2019-05-20T19:40:36.824Z,41.97
2019-05-20T19:43:04.963Z,34.90
2019-05-20T19:45:33.114Z,45.43
2019-05-20T19:48:01.259Z,33.20
2019-05-20T19:50:29.426Z,33.67
2019-05-20T19:52:57.703Z,31.13
2019-05-20T19:55:26.178Z,37.83
2019-05-20T19:57:54.355Z,27.50
2019-05-20T20:00:22.842Z,35.83
2019-05-20T20:02:51.218Z,40.10
2019-05-20T20:05:19.715Z,26.67
2019-05-20T20:07:48.107Z,30.57
2019-05-20T20:10:16.583Z,22.67
2019-05-20T20:12:44.718Z,24.20
2019-05-20T20:15:16.422Z,27.33
2019-05-20T20:17:44.549Z,20.27
2019-05-20T20:20:12.986Z,23.47
2019-05-20T20:22:41.144Z,18.47
2019-05-20T20:25:09.361Z,22.43
2019-05-20T20:27:37.511Z,26.17
2019-05-20T20:30:05.963Z,21.00
2019-05-20T20:32:38.084Z,23.10
2019-05-20T20:35:05.736Z,22.53
2019-05-20T20:37:34.164Z,21.57
2019-05-20T20:40:02.315Z,28.37
2019-05-20T20:42:30.463Z,27.23
2019-05-20T20:44:58.618Z,33.03
2019-05-20T20:47:40.911Z,27.87
2019-05-20T20:49:57.174Z,36.53
2019-05-20T20:52:25.313Z,39.70
2019-05-20T20:54:53.454Z,33.60
2019-05-20T20:57:21.884Z,40.13
2019-05-20T20:59:50.372Z,41.93
2019-05-20T21:02:18.563Z,43.77
2019-05-20T21:04:46.701Z,60.17
2019-05-20T21:07:14.851Z,39.23
2019-05-20T21:09:43.020Z,44.63
2019-05-20T21:12:11.210Z,40.17
2019-05-20T21:14:39.431Z,53.73
2019-05-20T21:17:07.953Z,48.93
2019-05-20T21:19:36.093Z,49.83
2019-05-20T21:22:04.246Z,51.50
2019-05-20T21:24:32.695Z,47.50
2019-05-20T21:27:00.860Z,48.83
2019-05-20T21:29:32.357Z,42.27
2019-05-20T21:31:59.217Z,32.63
2019-05-20T21:34:27.355Z,34.27
2019-05-20T21:36:55.947Z,30.50
2019-05-20T21:39:24.412Z,26.93
2019-05-20T21:41:52.570Z,23.07
2019-05-20T21:44:20.729Z,33.30
2019-05-20T21:46:49.156Z,23.17
2019-05-20T21:49:17.304Z,25.77
2019-05-20T21:51:45.451Z,25.33
2019-05-20T21:54:13.585Z,20.80
2019-05-20T21:56:41.745Z,20.73
2019-05-20T21:59:09.873Z,19.47
2019-05-20T22:01:38.442Z,18.43
2019-05-20T22:04:06.594Z,12.50
2019-05-20T22:06:35.102Z,14.17
2019-05-20T22:09:04.298Z,15.43
2019-05-20T22:11:32.427Z,14.73
2019-05-20T22:14:00.567Z,16.90
2019-05-20T22:16:29.759Z,16.43
2019-05-20T22:18:58.198Z,10.73
2019-05-20T22:21:28.245Z,8.70
2019-05-20T22:23:58.023Z,13.20
2019-05-20T22:26:26.457Z,17.50
2019-05-20T22:28:54.947Z,14.53
2019-05-20T22:31:23.098Z,22.03
2019-05-20T22:33:51.242Z,22.67
2019-05-20T22:36:19.481Z,26.27
2019-05-20T22:38:47.610Z,29.50
2019-05-20T22:41:15.770Z,33.97
2019-05-20T22:43:43.955Z,38.73
2019-05-20T22:46:12.411Z,35.97
2019-05-20T22:48:40.885Z,32.87
2019-05-20T22:51:09.026Z,36.97
2019-05-20T22:53:37.177Z,43.80
2019-05-20T22:56:05.311Z,38.57
2019-05-20T22:58:33.458Z,51.63
2019-05-20T23:01:01.886Z,58.47
2019-05-20T23:03:30.133Z,51.23
2019-05-20T23:05:58.306Z,46.33
2019-05-20T23:08:26.714Z,50.43
2019-05-20T23:10:54.859Z,51.17
2019-05-20T23:13:23.299Z,37.53
2019-05-20T23:15:51.442Z,40.60
2019-05-20T23:18:19.600Z,32.67
2019-05-20T23:20:47.742Z,28.67
2019-05-20T23:23:16.186Z,33.63
2019-05-20T23:25:44.329Z,33.00
2019-05-20T23:28:12.561Z,41.27
2019-05-20T23:30:40.693Z,38.03
2019-05-20T23:33:08.853Z,38.50
2019-05-20T23:35:37.305Z,29.27
2019-05-20T23:38:05.454Z,23.50
2019-05-20T23:40:33.601Z,27.17
2019-05-20T23:43:01.755Z,27.27
2019-05-20T23:45:30.226Z,24.80
2019-05-20T23:47:58.380Z,23.67
2019-05-20T23:50:26.884Z,27.10
2019-05-20T23:52:55.031Z,23.77
2019-05-20T23:55:23.162Z,31.10
2019-05-20T23:57:51.318Z,19.87
